sensor_id;sensor_type;location;lat;lon;timestamp;P1;durP1;ratioP1;P2;durP2;ratioP2
22995;SDS011;11664;49.774;8.650;2022-12-18T00:00:28;10.23;;;6.80;;
22995;SDS011;11664;49.774;8.650;2022-12-18T00:02:55;14.48;;;8.82;;
22995;SDS011;11664;49.774;8.650;2022-12-18T00:05:20;17.15;;;9.60;;
22995;SDS011;11664;49.774;8.650;2022-12-18T00:07:46;19.48;;;9.20;;
22995;SDS011;11664;49.774;8.650;2022-12-18T00:10:12;11.65;;;7.78;;
22995;SDS011;11664;49.774;8.650;2022-12-18T00:12:37;21.27;;;9.15;;
22995;SDS011;11664;49.774;8.650;2022-12-18T00:15:03;14.48;;;8.63;;
22995;SDS011;11664;49.774;8.650;2022-12-18T00:17:29;12.75;;;7.38;;
22995;SDS011;11664;49.774;8.650;2022-12-18T00:19:54;8.70;;;7.70;;
22995;SDS011;11664;49.774;8.650;2022-12-18T00:22:20;13.57;;;7.68;;
22995;SDS011;11664;49.774;8.650;2022-12-18T00:24:45;11.10;;;8.02;;
22995;SDS011;11664;49.774;8.650;2022-12-18T00:27:11;8.85;;;7.38;;
22995;SDS011;11664;49.774;8.650;2022-12-18T00:29:37;8.73;;;7.13;;
22995;SDS011;11664;49.774;8.650;2022-12-18T00:32:05;18.33;;;9.73;;
22995;SDS011;11664;49.774;8.650;2022-12-18T00:34:30;12.32;;;6.88;;
22995;SDS011;11664;49.774;8.650;2022-12-18T00:36:56;9.02;;;6.90;;
22995;SDS011;11664;49.774;8.650;2022-12-18T00:39:21;14.82;;;8.50;;
22995;SDS011;11664;49.774;8.650;2022-12-18T00:41:47;13.43;;;8.98;;
22995;SDS011;11664;49.774;8.650;2022-12-18T00:44:31;15.02;;;7.60;;
22995;SDS011;11664;49.774;8.650;2022-12-18T00:46:56;14.57;;;8.75;;
22995;SDS011;11664;49.774;8.650;2022-12-18T00:49:22;13.65;;;7.43;;
22995;SDS011;11664;49.774;8.650;2022-12-18T00:51:47;8.82;;;7.47;;
22995;SDS011;11664;49.774;8.650;2022-12-18T00:54:13;10.13;;;7.53;;
22995;SDS011;11664;49.774;8.650;2022-12-18T00:56:40;13.65;;;7.38;;
22995;SDS011;11664;49.774;8.650;2022-12-18T00:59:05;9.32;;;6.72;;
22995;SDS011;11664;49.774;8.650;2022-12-18T01:01:31;8.80;;;7.07;;
22995;SDS011;11664;49.774;8.650;2022-12-18T01:03:57;9.93;;;6.80;;
22995;SDS011;11664;49.774;8.650;2022-12-18T01:06:24;10.45;;;8.02;;
22995;SDS011;11664;49.774;8.650;2022-12-18T01:08:50;8.32;;;6.45;;
22995;SDS011;11664;49.774;8.650;2022-12-18T01:11:16;14.60;;;7.53;;
22995;SDS011;11664;49.774;8.650;2022-12-18T01:13:44;15.30;;;9.13;;
22995;SDS011;11664;49.774;8.650;2022-12-18T01:16:13;11.35;;;8.68;;
22995;SDS011;11664;49.774;8.650;2022-12-18T01:18:40;11.95;;;8.32;;
22995;SDS011;11664;49.774;8.650;2022-12-18T01:21:07;22.90;;;8.80;;
22995;SDS011;11664;49.774;8.650;2022-12-18T01:23:34;18.05;;;7.68;;
22995;SDS011;11664;49.774;8.650;2022-12-18T01:26:10;18.52;;;9.85;;
22995;SDS011;11664;49.774;8.650;2022-12-18T01:28:38;15.63;;;8.70;;
22995;SDS011;11664;49.774;8.650;2022-12-18T01:31:15;16.52;;;8.32;;
22995;SDS011;11664;49.774;8.650;2022-12-18T01:33:54;13.38;;;9.23;;
22995;SDS011;11664;49.774;8.650;2022-12-18T01:36:21;17.20;;;10.25;;
22995;SDS011;11664;49.774;8.650;2022-12-18T01:38:49;19.45;;;9.25;;
22995;SDS011;11664;49.774;8.650;2022-12-18T01:41:16;10.25;;;6.40;;
22995;SDS011;11664;49.774;8.650;2022-12-18T01:43:57;13.43;;;7.97;;
22995;SDS011;11664;49.774;8.650;2022-12-18T01:46:23;15.40;;;8.32;;
22995;SDS011;11664;49.774;8.650;2022-12-18T01:48:58;12.52;;;8.02;;
22995;SDS011;11664;49.774;8.650;2022-12-18T01:51:25;13.20;;;9.05;;
22995;SDS011;11664;49.774;8.650;2022-12-18T01:53:53;16.45;;;8.93;;
22995;SDS011;11664;49.774;8.650;2022-12-18T01:56:19;16.92;;;9.85;;
22995;SDS011;11664;49.774;8.650;2022-12-18T01:59:07;10.27;;;7.25;;
22995;SDS011;11664;49.774;8.650;2022-12-18T02:01:34;12.32;;;8.07;;
22995;SDS011;11664;49.774;8.650;2022-12-18T02:06:46;6.15;;;5.55;;
22995;SDS011;11664;49.774;8.650;2022-12-18T02:09:28;18.67;;;6.90;;
22995;SDS011;11664;49.774;8.650;2022-12-18T02:11:59;13.52;;;8.35;;
22995;SDS011;11664;49.774;8.650;2022-12-18T02:17:19;16.67;;;8.23;;
22995;SDS011;11664;49.774;8.650;2022-12-18T02:28:24;12.25;;;8.27;;
22995;SDS011;11664;49.774;8.650;2022-12-18T02:30:53;17.02;;;8.48;;
22995;SDS011;11664;49.774;8.650;2022-12-18T02:33:25;11.63;;;6.57;;
22995;SDS011;11664;49.774;8.650;2022-12-18T02:35:53;10.47;;;8.03;;
22995;SDS011;11664;49.774;8.650;2022-12-18T02:38:21;17.77;;;8.23;;
22995;SDS011;11664;49.774;8.650;2022-12-18T02:40:48;13.15;;;8.38;;
22995;SDS011;11664;49.774;8.650;2022-12-18T02:43:14;13.20;;;6.75;;
22995;SDS011;11664;49.774;8.650;2022-12-18T02:45:48;10.48;;;6.95;;
22995;SDS011;11664;49.774;8.650;2022-12-18T02:48:20;9.45;;;6.50;;
22995;SDS011;11664;49.774;8.650;2022-12-18T02:50:56;10.60;;;6.53;;
22995;SDS011;11664;49.774;8.650;2022-12-18T02:53:40;10.05;;;6.68;;
22995;SDS011;11664;49.774;8.650;2022-12-18T02:56:17;7.93;;;6.50;;
22995;SDS011;11664;49.774;8.650;2022-12-18T03:01:22;11.15;;;7.88;;
22995;SDS011;11664;49.774;8.650;2022-12-18T03:03:59;14.40;;;8.48;;
22995;SDS011;11664;49.774;8.650;2022-12-18T03:06:34;15.68;;;8.75;;
22995;SDS011;11664;49.774;8.650;2022-12-18T03:09:06;10.95;;;8.57;;
22995;SDS011;11664;49.774;8.650;2022-12-18T03:11:40;11.05;;;7.13;;
22995;SDS011;11664;49.774;8.650;2022-12-18T03:14:29;11.07;;;7.32;;
22995;SDS011;11664;49.774;8.650;2022-12-18T03:16:59;15.98;;;9.05;;
22995;SDS011;11664;49.774;8.650;2022-12-18T03:19:28;17.10;;;8.40;;
22995;SDS011;11664;49.774;8.650;2022-12-18T03:21:56;6.47;;;5.47;;
22995;SDS011;11664;49.774;8.650;2022-12-18T03:24:25;9.25;;;6.72;;
22995;SDS011;11664;49.774;8.650;2022-12-18T03:26:54;9.73;;;6.30;;
22995;SDS011;11664;49.774;8.650;2022-12-18T03:29:31;22.58;;;9.20;;
22995;SDS011;11664;49.774;8.650;2022-12-18T03:32:04;18.73;;;7.55;;
22995;SDS011;11664;49.774;8.650;2022-12-18T03:34:35;16.13;;;8.35;;
22995;SDS011;11664;49.774;8.650;2022-12-18T03:37:03;8.80;;;6.95;;
22995;SDS011;11664;49.774;8.650;2022-12-18T03:39:30;16.02;;;7.95;;
22995;SDS011;11664;49.774;8.650;2022-12-18T03:44:28;11.75;;;7.03;;
22995;SDS011;11664;49.774;8.650;2022-12-18T03:52:30;7.40;;;6.47;;
22995;SDS011;11664;49.774;8.650;2022-12-18T03:55:14;13.90;;;7.25;;
22995;SDS011;11664;49.774;8.650;2022-12-18T03:57:42;10.88;;;6.80;;
22995;SDS011;11664;49.774;8.650;2022-12-18T04:00:13;12.43;;;7.70;;
22995;SDS011;11664;49.774;8.650;2022-12-18T04:02:45;11.63;;;7.90;;
22995;SDS011;11664;49.774;8.650;2022-12-18T04:05:20;17.05;;;7.78;;
22995;SDS011;11664;49.774;8.650;2022-12-18T04:07:47;16.27;;;8.25;;
22995;SDS011;11664;49.774;8.650;2022-12-18T04:10:16;12.18;;;5.78;;
22995;SDS011;11664;49.774;8.650;2022-12-18T04:12:42;11.48;;;8.30;;
22995;SDS011;11664;49.774;8.650;2022-12-18T04:15:08;12.45;;;7.85;;
22995;SDS011;11664;49.774;8.650;2022-12-18T04:17:35;10.70;;;7.95;;
22995;SDS011;11664;49.774;8.650;2022-12-18T04:20:00;12.82;;;7.45;;
22995;SDS011;11664;49.774;8.650;2022-12-18T04:22:26;15.38;;;8.65;;
22995;SDS011;11664;49.774;8.650;2022-12-18T04:24:51;11.57;;;8.13;;
22995;SDS011;11664;49.774;8.650;2022-12-18T04:27:17;13.48;;;7.90;;
22995;SDS011;11664;49.774;8.650;2022-12-18T04:29:42;11.93;;;7.20;;
22995;SDS011;11664;49.774;8.650;2022-12-18T04:32:08;10.82;;;6.90;;
22995;SDS011;11664;49.774;8.650;2022-12-18T04:34:34;8.63;;;7.30;;
22995;SDS011;11664;49.774;8.650;2022-12-18T04:36:59;9.80;;;6.45;;
22995;SDS011;11664;49.774;8.650;2022-12-18T04:39:25;18.55;;;9.90;;
22995;SDS011;11664;49.774;8.650;2022-12-18T04:41:50;13.32;;;7.40;;
22995;SDS011;11664;49.774;8.650;2022-12-18T04:44:16;10.70;;;7.20;;
22995;SDS011;11664;49.774;8.650;2022-12-18T04:46:42;8.55;;;7.75;;
22995;SDS011;11664;49.774;8.650;2022-12-18T04:49:07;13.05;;;7.63;;
22995;SDS011;11664;49.774;8.650;2022-12-18T04:51:35;13.48;;;9.35;;
22995;SDS011;11664;49.774;8.650;2022-12-18T04:54:01;10.38;;;7.13;;
22995;SDS011;11664;49.774;8.650;2022-12-18T04:56:27;10.65;;;7.80;;
22995;SDS011;11664;49.774;8.650;2022-12-18T04:58:53;12.82;;;8.18;;
22995;SDS011;11664;49.774;8.650;2022-12-18T05:01:19;8.80;;;6.90;;
22995;SDS011;11664;49.774;8.650;2022-12-18T05:03:45;12.23;;;8.23;;
22995;SDS011;11664;49.774;8.650;2022-12-18T05:06:10;12.57;;;6.85;;
22995;SDS011;11664;49.774;8.650;2022-12-18T05:08:36;8.68;;;6.75;;
22995;SDS011;11664;49.774;8.650;2022-12-18T05:11:03;12.52;;;7.80;;
22995;SDS011;11664;49.774;8.650;2022-12-18T05:13:31;10.13;;;7.80;;
22995;SDS011;11664;49.774;8.650;2022-12-18T05:15:56;10.25;;;6.80;;
22995;SDS011;11664;49.774;8.650;2022-12-18T05:18:22;8.35;;;7.32;;
22995;SDS011;11664;49.774;8.650;2022-12-18T05:20:49;7.72;;;6.93;;
22995;SDS011;11664;49.774;8.650;2022-12-18T05:23:16;14.27;;;8.30;;
22995;SDS011;11664;49.774;8.650;2022-12-18T05:25:41;11.73;;;7.40;;
22995;SDS011;11664;49.774;8.650;2022-12-18T05:28:07;13.82;;;8.50;;
22995;SDS011;11664;49.774;8.650;2022-12-18T05:30:33;17.35;;;9.18;;
22995;SDS011;11664;49.774;8.650;2022-12-18T05:32:59;16.70;;;11.10;;
22995;SDS011;11664;49.774;8.650;2022-12-18T05:35:26;23.65;;;13.02;;
22995;SDS011;11664;49.774;8.650;2022-12-18T05:37:51;22.25;;;11.27;;
22995;SDS011;11664;49.774;8.650;2022-12-18T05:40:17;19.67;;;9.77;;
22995;SDS011;11664;49.774;8.650;2022-12-18T05:42:42;14.40;;;8.80;;
22995;SDS011;11664;49.774;8.650;2022-12-18T05:45:08;12.90;;;8.30;;
22995;SDS011;11664;49.774;8.650;2022-12-18T05:47:34;17.65;;;9.68;;
22995;SDS011;11664;49.774;8.650;2022-12-18T05:50:00;19.63;;;10.18;;
22995;SDS011;11664;49.774;8.650;2022-12-18T05:52:25;30.83;;;12.70;;
22995;SDS011;11664;49.774;8.650;2022-12-18T05:54:51;24.45;;;10.23;;
22995;SDS011;11664;49.774;8.650;2022-12-18T05:57:16;27.20;;;10.68;;
22995;SDS011;11664;49.774;8.650;2022-12-18T05:59:42;22.92;;;11.32;;
22995;SDS011;11664;49.774;8.650;2022-12-18T06:02:08;26.58;;;10.48;;
22995;SDS011;11664;49.774;8.650;2022-12-18T06:04:33;28.60;;;11.27;;
22995;SDS011;11664;49.774;8.650;2022-12-18T06:06:59;20.67;;;10.38;;
22995;SDS011;11664;49.774;8.650;2022-12-18T06:09:24;18.88;;;11.02;;
22995;SDS011;11664;49.774;8.650;2022-12-18T06:11:51;23.45;;;10.98;;
22995;SDS011;11664;49.774;8.650;2022-12-18T06:14:17;20.58;;;10.63;;
22995;SDS011;11664;49.774;8.650;2022-12-18T06:16:42;24.20;;;11.25;;
22995;SDS011;11664;49.774;8.650;2022-12-18T06:19:12;20.27;;;10.73;;
22995;SDS011;11664;49.774;8.650;2022-12-18T06:21:40;23.33;;;11.95;;
22995;SDS011;11664;49.774;8.650;2022-12-18T06:24:05;19.58;;;10.05;;
22995;SDS011;11664;49.774;8.650;2022-12-18T06:26:31;11.40;;;7.65;;
22995;SDS011;11664;49.774;8.650;2022-12-18T06:28:57;13.68;;;7.97;;
22995;SDS011;11664;49.774;8.650;2022-12-18T06:31:22;18.85;;;9.65;;
22995;SDS011;11664;49.774;8.650;2022-12-18T06:33:48;10.75;;;7.07;;
22995;SDS011;11664;49.774;8.650;2022-12-18T06:36:14;15.88;;;8.55;;
22995;SDS011;11664;49.774;8.650;2022-12-18T06:38:42;26.42;;;12.00;;
22995;SDS011;11664;49.774;8.650;2022-12-18T06:41:09;19.20;;;10.13;;
22995;SDS011;11664;49.774;8.650;2022-12-18T06:43:39;20.35;;;11.10;;
22995;SDS011;11664;49.774;8.650;2022-12-18T06:46:05;27.52;;;10.43;;
22995;SDS011;11664;49.774;8.650;2022-12-18T06:48:31;22.30;;;11.43;;
22995;SDS011;11664;49.774;8.650;2022-12-18T06:50:57;27.98;;;9.80;;
22995;SDS011;11664;49.774;8.650;2022-12-18T06:53:23;17.83;;;10.05;;
22995;SDS011;11664;49.774;8.650;2022-12-18T06:55:49;16.75;;;9.90;;
22995;SDS011;11664;49.774;8.650;2022-12-18T06:58:14;15.70;;;9.00;;
22995;SDS011;11664;49.774;8.650;2022-12-18T07:00:40;30.38;;;12.23;;
22995;SDS011;11664;49.774;8.650;2022-12-18T07:03:07;14.82;;;10.07;;
22995;SDS011;11664;49.774;8.650;2022-12-18T07:05:32;16.42;;;8.70;;
22995;SDS011;11664;49.774;8.650;2022-12-18T07:07:58;17.25;;;10.88;;
22995;SDS011;11664;49.774;8.650;2022-12-18T07:10:24;15.27;;;13.95;;
22995;SDS011;11664;49.774;8.650;2022-12-18T07:12:49;7.35;;;6.63;;
22995;SDS011;11664;49.774;8.650;2022-12-18T07:15:15;14.65;;;7.28;;
22995;SDS011;11664;49.774;8.650;2022-12-18T07:17:40;9.15;;;7.38;;
22995;SDS011;11664;49.774;8.650;2022-12-18T07:20:06;8.43;;;6.47;;
22995;SDS011;11664;49.774;8.650;2022-12-18T07:22:32;29.33;;;9.95;;
22995;SDS011;11664;49.774;8.650;2022-12-18T07:24:58;11.10;;;7.90;;
22995;SDS011;11664;49.774;8.650;2022-12-18T07:27:23;13.85;;;7.10;;
22995;SDS011;11664;49.774;8.650;2022-12-18T07:29:49;7.65;;;6.85;;
22995;SDS011;11664;49.774;8.650;2022-12-18T07:32:15;8.93;;;7.03;;
22995;SDS011;11664;49.774;8.650;2022-12-18T07:34:40;9.00;;;7.13;;
22995;SDS011;11664;49.774;8.650;2022-12-18T07:37:06;12.05;;;6.72;;
22995;SDS011;11664;49.774;8.650;2022-12-18T07:39:31;8.52;;;7.13;;
22995;SDS011;11664;49.774;8.650;2022-12-18T07:41:57;7.85;;;6.75;;
22995;SDS011;11664;49.774;8.650;2022-12-18T07:44:41;9.90;;;6.35;;
22995;SDS011;11664;49.774;8.650;2022-12-18T07:47:07;20.67;;;7.03;;
22995;SDS011;11664;49.774;8.650;2022-12-18T07:49:33;12.77;;;6.25;;
22995;SDS011;11664;49.774;8.650;2022-12-18T07:51:58;8.30;;;6.10;;
22995;SDS011;11664;49.774;8.650;2022-12-18T07:54:24;10.90;;;6.78;;
22995;SDS011;11664;49.774;8.650;2022-12-18T07:56:50;20.88;;;6.40;;
22995;SDS011;11664;49.774;8.650;2022-12-18T07:59:16;12.65;;;8.77;;
22995;SDS011;11664;49.774;8.650;2022-12-18T08:01:43;10.70;;;7.05;;
22995;SDS011;11664;49.774;8.650;2022-12-18T08:04:08;8.07;;;7.28;;
22995;SDS011;11664;49.774;8.650;2022-12-18T08:06:34;15.85;;;9.13;;
22995;SDS011;11664;49.774;8.650;2022-12-18T08:08:59;18.60;;;8.23;;
22995;SDS011;11664;49.774;8.650;2022-12-18T08:11:26;14.93;;;8.48;;
22995;SDS011;11664;49.774;8.650;2022-12-18T08:13:53;16.08;;;8.98;;
22995;SDS011;11664;49.774;8.650;2022-12-18T08:16:19;22.90;;;9.15;;
22995;SDS011;11664;49.774;8.650;2022-12-18T08:18:45;13.00;;;8.68;;
22995;SDS011;11664;49.774;8.650;2022-12-18T08:21:11;9.85;;;6.75;;
22995;SDS011;11664;49.774;8.650;2022-12-18T08:23:40;18.98;;;9.43;;
22995;SDS011;11664;49.774;8.650;2022-12-18T08:26:06;17.83;;;8.23;;
22995;SDS011;11664;49.774;8.650;2022-12-18T08:28:31;11.63;;;7.65;;
22995;SDS011;11664;49.774;8.650;2022-12-18T08:30:57;15.75;;;9.35;;
22995;SDS011;11664;49.774;8.650;2022-12-18T08:33:23;19.60;;;8.60;;
22995;SDS011;11664;49.774;8.650;2022-12-18T08:35:49;11.07;;;7.32;;
22995;SDS011;11664;49.774;8.650;2022-12-18T08:38:14;16.33;;;7.63;;
22995;SDS011;11664;49.774;8.650;2022-12-18T08:40:40;20.10;;;10.82;;
22995;SDS011;11664;49.774;8.650;2022-12-18T08:43:07;20.45;;;10.80;;
22995;SDS011;11664;49.774;8.650;2022-12-18T08:45:53;16.83;;;8.75;;
22995;SDS011;11664;49.774;8.650;2022-12-18T08:48:19;12.75;;;8.07;;
22995;SDS011;11664;49.774;8.650;2022-12-18T08:50:52;15.90;;;8.50;;
22995;SDS011;11664;49.774;8.650;2022-12-18T08:53:20;13.27;;;7.90;;
22995;SDS011;11664;49.774;8.650;2022-12-18T08:55:45;11.98;;;9.18;;
22995;SDS011;11664;49.774;8.650;2022-12-18T08:58:11;12.90;;;7.93;;
22995;SDS011;11664;49.774;8.650;2022-12-18T09:00:36;18.55;;;9.77;;
22995;SDS011;11664;49.774;8.650;2022-12-18T09:03:02;17.10;;;10.05;;
22995;SDS011;11664;49.774;8.650;2022-12-18T09:05:27;17.50;;;7.90;;
22995;SDS011;11664;49.774;8.650;2022-12-18T09:07:53;12.95;;;8.80;;
22995;SDS011;11664;49.774;8.650;2022-12-18T09:10:18;15.73;;;8.93;;
22995;SDS011;11664;49.774;8.650;2022-12-18T09:12:44;18.55;;;9.63;;
22995;SDS011;11664;49.774;8.650;2022-12-18T09:15:09;7.97;;;7.03;;
22995;SDS011;11664;49.774;8.650;2022-12-18T09:17:36;11.63;;;7.25;;
22995;SDS011;11664;49.774;8.650;2022-12-18T09:20:02;18.15;;;8.48;;
22995;SDS011;11664;49.774;8.650;2022-12-18T09:22:27;15.18;;;8.75;;
22995;SDS011;11664;49.774;8.650;2022-12-18T09:24:53;10.35;;;8.07;;
22995;SDS011;11664;49.774;8.650;2022-12-18T09:27:19;26.23;;;8.80;;
22995;SDS011;11664;49.774;8.650;2022-12-18T09:29:44;12.93;;;9.48;;
22995;SDS011;11664;49.774;8.650;2022-12-18T09:32:10;10.65;;;7.47;;
22995;SDS011;11664;49.774;8.650;2022-12-18T09:34:35;29.00;;;12.95;;
22995;SDS011;11664;49.774;8.650;2022-12-18T09:37:01;20.70;;;10.68;;
22995;SDS011;11664;49.774;8.650;2022-12-18T09:39:27;9.80;;;8.32;;
22995;SDS011;11664;49.774;8.650;2022-12-18T09:41:53;12.63;;;8.88;;
22995;SDS011;11664;49.774;8.650;2022-12-18T09:46:52;15.93;;;8.93;;
22995;SDS011;11664;49.774;8.650;2022-12-18T09:49:42;21.05;;;9.90;;
22995;SDS011;11664;49.774;8.650;2022-12-18T09:52:12;11.65;;;8.52;;
22995;SDS011;11664;49.774;8.650;2022-12-18T09:54:56;17.10;;;10.00;;
22995;SDS011;11664;49.774;8.650;2022-12-18T09:57:29;19.02;;;10.38;;
22995;SDS011;11664;49.774;8.650;2022-12-18T10:00:09;16.90;;;10.80;;
22995;SDS011;11664;49.774;8.650;2022-12-18T10:02:42;13.57;;;9.75;;
22995;SDS011;11664;49.774;8.650;2022-12-18T10:05:10;25.15;;;12.57;;
22995;SDS011;11664;49.774;8.650;2022-12-18T10:07:40;29.55;;;14.73;;
22995;SDS011;11664;49.774;8.650;2022-12-18T10:10:32;21.45;;;12.57;;
22995;SDS011;11664;49.774;8.650;2022-12-18T10:13:27;14.27;;;10.20;;
22995;SDS011;11664;49.774;8.650;2022-12-18T10:16:13;17.60;;;9.27;;
22995;SDS011;11664;49.774;8.650;2022-12-18T10:21:12;25.83;;;12.40;;
22995;SDS011;11664;49.774;8.650;2022-12-18T10:23:53;29.77;;;14.10;;
22995;SDS011;11664;49.774;8.650;2022-12-18T10:26:29;33.65;;;12.70;;
22995;SDS011;11664;49.774;8.650;2022-12-18T10:28:56;32.85;;;14.15;;
22995;SDS011;11664;49.774;8.650;2022-12-18T10:31:23;30.55;;;13.35;;
22995;SDS011;11664;49.774;8.650;2022-12-18T10:33:50;21.13;;;12.30;;
22995;SDS011;11664;49.774;8.650;2022-12-18T10:36:16;32.47;;;13.05;;
22995;SDS011;11664;49.774;8.650;2022-12-18T10:38:42;35.90;;;14.35;;
22995;SDS011;11664;49.774;8.650;2022-12-18T10:43:42;28.85;;;14.18;;
22995;SDS011;11664;49.774;8.650;2022-12-18T10:48:39;28.10;;;13.50;;
22995;SDS011;11664;49.774;8.650;2022-12-18T10:51:25;33.57;;;15.60;;
22995;SDS011;11664;49.774;8.650;2022-12-18T10:54:22;30.65;;;14.02;;
22995;SDS011;11664;49.774;8.650;2022-12-18T10:56:47;21.60;;;12.32;;
22995;SDS011;11664;49.774;8.650;2022-12-18T10:59:14;30.77;;;13.50;;
22995;SDS011;11664;49.774;8.650;2022-12-18T11:01:59;27.10;;;12.68;;
22995;SDS011;11664;49.774;8.650;2022-12-18T11:04:26;19.42;;;12.02;;
22995;SDS011;11664;49.774;8.650;2022-12-18T11:06:54;29.45;;;13.00;;
22995;SDS011;11664;49.774;8.650;2022-12-18T11:09:22;28.27;;;12.57;;
22995;SDS011;11664;49.774;8.650;2022-12-18T11:11:53;25.33;;;13.18;;
22995;SDS011;11664;49.774;8.650;2022-12-18T11:14:22;33.63;;;14.25;;
22995;SDS011;11664;49.774;8.650;2022-12-18T11:16:50;24.35;;;11.57;;
22995;SDS011;11664;49.774;8.650;2022-12-18T11:22:00;20.05;;;11.20;;
22995;SDS011;11664;49.774;8.650;2022-12-18T11:24:30;29.27;;;13.38;;
22995;SDS011;11664;49.774;8.650;2022-12-18T11:27:02;32.15;;;12.95;;
22995;SDS011;11664;49.774;8.650;2022-12-18T11:29:32;27.38;;;13.32;;
22995;SDS011;11664;49.774;8.650;2022-12-18T11:34:58;28.27;;;13.35;;
22995;SDS011;11664;49.774;8.650;2022-12-18T11:37:33;31.80;;;15.02;;
22995;SDS011;11664;49.774;8.650;2022-12-18T11:40:35;30.05;;;13.57;;
22995;SDS011;11664;49.774;8.650;2022-12-18T11:43:21;27.45;;;12.57;;
22995;SDS011;11664;49.774;8.650;2022-12-18T11:45:54;29.30;;;13.48;;
22995;SDS011;11664;49.774;8.650;2022-12-18T11:48:32;34.58;;;12.93;;
22995;SDS011;11664;49.774;8.650;2022-12-18T11:51:03;28.48;;;12.40;;
22995;SDS011;11664;49.774;8.650;2022-12-18T11:53:34;30.70;;;13.07;;
22995;SDS011;11664;49.774;8.650;2022-12-18T11:59:22;23.92;;;11.55;;
22995;SDS011;11664;49.774;8.650;2022-12-18T12:02:17;27.75;;;12.90;;
22995;SDS011;11664;49.774;8.650;2022-12-18T12:05:03;31.30;;;11.52;;
22995;SDS011;11664;49.774;8.650;2022-12-18T12:10:30;21.98;;;11.77;;
22995;SDS011;11664;49.774;8.650;2022-12-18T12:13:44;26.10;;;14.02;;
22995;SDS011;11664;49.774;8.650;2022-12-18T12:21:48;30.52;;;13.32;;
22995;SDS011;11664;49.774;8.650;2022-12-18T12:24:27;26.73;;;13.02;;
22995;SDS011;11664;49.774;8.650;2022-12-18T12:32:25;33.72;;;12.98;;
22995;SDS011;11664;49.774;8.650;2022-12-18T12:35:15;30.50;;;12.63;;
22995;SDS011;11664;49.774;8.650;2022-12-18T12:40:46;30.10;;;13.68;;
22995;SDS011;11664;49.774;8.650;2022-12-18T12:43:38;30.35;;;12.68;;
22995;SDS011;11664;49.774;8.650;2022-12-18T12:46:11;22.25;;;11.95;;
22995;SDS011;11664;49.774;8.650;2022-12-18T12:53:47;28.63;;;11.93;;
22995;SDS011;11664;49.774;8.650;2022-12-18T12:56:14;31.23;;;12.63;;
22995;SDS011;11664;49.774;8.650;2022-12-18T13:07:14;25.70;;;12.60;;
22995;SDS011;11664;49.774;8.650;2022-12-18T13:12:51;25.08;;;12.27;;
22995;SDS011;11664;49.774;8.650;2022-12-18T13:15:24;22.00;;;10.60;;
22995;SDS011;11664;49.774;8.650;2022-12-18T13:18:06;22.35;;;12.32;;
22995;SDS011;11664;49.774;8.650;2022-12-18T13:25:55;29.30;;;13.70;;
22995;SDS011;11664;49.774;8.650;2022-12-18T13:31:12;31.63;;;11.93;;
22995;SDS011;11664;49.774;8.650;2022-12-18T13:34:38;25.27;;;13.05;;
22995;SDS011;11664;49.774;8.650;2022-12-18T13:36:52;22.30;;;13.20;;
22995;SDS011;11664;49.774;8.650;2022-12-18T13:41:48;21.77;;;12.85;;
22995;SDS011;11664;49.774;8.650;2022-12-18T13:47:00;23.55;;;11.02;;
22995;SDS011;11664;49.774;8.650;2022-12-18T13:52:14;20.33;;;10.63;;
22995;SDS011;11664;49.774;8.650;2022-12-18T13:54:43;27.92;;;12.48;;
22995;SDS011;11664;49.774;8.650;2022-12-18T13:57:30;30.73;;;13.57;;
22995;SDS011;11664;49.774;8.650;2022-12-18T14:02:47;33.42;;;13.82;;
22995;SDS011;11664;49.774;8.650;2022-12-18T14:05:48;30.58;;;14.27;;
22995;SDS011;11664;49.774;8.650;2022-12-18T14:08:10;30.63;;;13.43;;
22995;SDS011;11664;49.774;8.650;2022-12-18T14:10:41;27.58;;;14.05;;
22995;SDS011;11664;49.774;8.650;2022-12-18T14:13:15;31.08;;;12.13;;
22995;SDS011;11664;49.774;8.650;2022-12-18T14:15:49;33.33;;;14.45;;
22995;SDS011;11664;49.774;8.650;2022-12-18T14:18:20;30.90;;;13.68;;
22995;SDS011;11664;49.774;8.650;2022-12-18T14:20:52;24.27;;;13.55;;
22995;SDS011;11664;49.774;8.650;2022-12-18T14:25:54;27.95;;;13.18;;
22995;SDS011;11664;49.774;8.650;2022-12-18T14:28:20;23.23;;;12.15;;
22995;SDS011;11664;49.774;8.650;2022-12-18T14:30:47;18.73;;;10.55;;
22995;SDS011;11664;49.774;8.650;2022-12-18T14:33:17;27.45;;;14.30;;
22995;SDS011;11664;49.774;8.650;2022-12-18T14:36:05;27.15;;;13.70;;
22995;SDS011;11664;49.774;8.650;2022-12-18T14:38:34;33.00;;;13.65;;
22995;SDS011;11664;49.774;8.650;2022-12-18T14:41:04;29.90;;;13.38;;
22995;SDS011;11664;49.774;8.650;2022-12-18T14:43:35;21.95;;;12.13;;
22995;SDS011;11664;49.774;8.650;2022-12-18T14:46:02;26.90;;;13.32;;
22995;SDS011;11664;49.774;8.650;2022-12-18T14:50:57;24.85;;;13.05;;
22995;SDS011;11664;49.774;8.650;2022-12-18T14:53:41;31.35;;;14.35;;
22995;SDS011;11664;49.774;8.650;2022-12-18T14:56:12;31.95;;;14.93;;
22995;SDS011;11664;49.774;8.650;2022-12-18T14:58:57;28.63;;;13.63;;
22995;SDS011;11664;49.774;8.650;2022-12-18T15:01:30;31.95;;;14.05;;
22995;SDS011;11664;49.774;8.650;2022-12-18T15:04:03;27.35;;;13.48;;
22995;SDS011;11664;49.774;8.650;2022-12-18T15:06:34;25.65;;;12.95;;
22995;SDS011;11664;49.774;8.650;2022-12-18T15:09:26;24.55;;;12.82;;
22995;SDS011;11664;49.774;8.650;2022-12-18T15:11:56;34.88;;;15.38;;
22995;SDS011;11664;49.774;8.650;2022-12-18T15:17:06;28.02;;;14.60;;
22995;SDS011;11664;49.774;8.650;2022-12-18T15:19:47;26.80;;;12.90;;
22995;SDS011;11664;49.774;8.650;2022-12-18T15:22:30;25.15;;;12.30;;
22995;SDS011;11664;49.774;8.650;2022-12-18T15:25:00;34.13;;;16.75;;
22995;SDS011;11664;49.774;8.650;2022-12-18T15:32:37;35.75;;;16.13;;
22995;SDS011;11664;49.774;8.650;2022-12-18T15:37:39;37.90;;;15.23;;
22995;SDS011;11664;49.774;8.650;2022-12-18T15:40:05;34.03;;;15.85;;
22995;SDS011;11664;49.774;8.650;2022-12-18T15:42:32;31.08;;;14.55;;
22995;SDS011;11664;49.774;8.650;2022-12-18T15:45:16;32.75;;;14.77;;
22995;SDS011;11664;49.774;8.650;2022-12-18T15:47:43;32.38;;;15.25;;
22995;SDS011;11664;49.774;8.650;2022-12-18T15:50:09;31.55;;;15.75;;
22995;SDS011;11664;49.774;8.650;2022-12-18T15:52:44;28.67;;;15.73;;
22995;SDS011;11664;49.774;8.650;2022-12-18T15:55:19;28.05;;;15.25;;
22995;SDS011;11664;49.774;8.650;2022-12-18T15:58:06;29.38;;;13.48;;
22995;SDS011;11664;49.774;8.650;2022-12-18T16:00:33;29.92;;;14.18;;
22995;SDS011;11664;49.774;8.650;2022-12-18T16:03:00;30.98;;;14.05;;
22995;SDS011;11664;49.774;8.650;2022-12-18T16:05:26;27.60;;;12.20;;
22995;SDS011;11664;49.774;8.650;2022-12-18T16:07:52;27.52;;;13.27;;
22995;SDS011;11664;49.774;8.650;2022-12-18T16:10:18;24.67;;;12.60;;
22995;SDS011;11664;49.774;8.650;2022-12-18T16:12:44;36.80;;;16.45;;
22995;SDS011;11664;49.774;8.650;2022-12-18T16:15:10;24.52;;;13.23;;
22995;SDS011;11664;49.774;8.650;2022-12-18T16:17:38;31.17;;;14.50;;
22995;SDS011;11664;49.774;8.650;2022-12-18T16:20:14;28.75;;;12.93;;
22995;SDS011;11664;49.774;8.650;2022-12-18T16:22:42;24.02;;;14.20;;
22995;SDS011;11664;49.774;8.650;2022-12-18T16:25:15;28.60;;;14.45;;
22995;SDS011;11664;49.774;8.650;2022-12-18T16:27:43;30.52;;;15.07;;
22995;SDS011;11664;49.774;8.650;2022-12-18T16:30:12;33.25;;;15.13;;
22995;SDS011;11664;49.774;8.650;2022-12-18T16:32:42;31.25;;;15.25;;
22995;SDS011;11664;49.774;8.650;2022-12-18T16:35:12;37.72;;;16.63;;
22995;SDS011;11664;49.774;8.650;2022-12-18T16:37:38;25.35;;;14.18;;